createdAt,value
2023-03-13T00:01:14.705Z,97.40
2023-03-13T00:03:42.759Z,97.49
2023-03-13T00:06:10.690Z,97.34
2023-03-13T00:08:38.458Z,97.14
2023-03-13T00:11:09.992Z,95.87
2023-03-13T00:13:38.388Z,95.84
2023-03-13T00:16:08.911Z,96.37
2023-03-13T00:18:38.377Z,95.28
2023-03-13T00:21:10.367Z,96.07
2023-03-13T00:23:40.387Z,95.76
2023-03-13T00:26:10.462Z,94.54
2023-03-13T00:28:40.147Z,94.96
2023-03-13T00:31:10.106Z,95.53
2023-03-13T00:33:40.938Z,95.83
2023-03-13T00:36:11.273Z,96.28
2023-03-13T00:38:40.367Z,96.21
2023-03-13T00:41:12.254Z,96.17
2023-03-13T00:43:40.275Z,95.65
2023-03-13T00:46:08.109Z,96.15
2023-03-13T00:48:37.406Z,95.63
2023-03-13T00:51:08.343Z,96.38
2023-03-13T00:53:36.547Z,97.28
2023-03-13T00:56:07.064Z,97.69
2023-03-13T00:58:36.426Z,99.05
2023-03-13T01:01:09.673Z,99.90
2023-03-13T01:03:38.509Z,100.00
2023-03-13T01:06:09.690Z,100.00
2023-03-13T01:08:38.028Z,100.00
2023-03-13T01:11:08.747Z,100.00
2023-03-13T01:13:37.910Z,100.00
2023-03-13T01:16:06.896Z,100.00
2023-03-13T01:18:34.728Z,100.00
2023-03-13T01:21:03.771Z,100.00
2023-03-13T01:23:33.502Z,100.00
2023-03-13T01:26:01.104Z,100.00
2023-03-13T01:28:29.166Z,100.00
2023-03-13T01:30:58.435Z,100.00
2023-03-13T01:33:26.987Z,100.00
2023-03-13T01:36:02.272Z,100.00
2023-03-13T01:38:30.751Z,100.00
2023-03-13T01:41:00.302Z,100.00
2023-03-13T01:43:30.277Z,100.00
2023-03-13T01:46:13.525Z,100.00
2023-03-13T01:48:54.089Z,100.00
2023-03-13T01:51:27.882Z,100.00
2023-03-13T01:54:03.772Z,100.00
2023-03-13T01:56:40.204Z,100.00
2023-03-13T01:59:11.674Z,100.00
2023-03-13T02:01:40.771Z,100.00
2023-03-13T02:04:09.200Z,100.00
2023-03-13T02:06:41.212Z,100.00
2023-03-13T02:09:13.750Z,100.00
2023-03-13T02:11:50.731Z,100.00
2023-03-13T02:14:22.380Z,100.00
2023-03-13T02:16:51.997Z,100.00
2023-03-13T02:19:26.389Z,100.00
2023-03-13T02:22:03.006Z,100.00
2023-03-13T02:24:38.495Z,100.00
2023-03-13T02:27:08.575Z,100.00
2023-03-13T02:29:39.656Z,100.00
2023-03-13T02:32:08.643Z,100.00
2023-03-13T02:34:40.372Z,100.00
2023-03-13T02:37:12.813Z,100.00
2023-03-13T02:39:45.720Z,100.00
2023-03-13T02:42:17.422Z,100.00
2023-03-13T02:44:48.066Z,100.00
2023-03-13T02:47:19.460Z,100.00
2023-03-13T02:49:48.538Z,100.00
2023-03-13T02:52:20.918Z,100.00
2023-03-13T02:54:52.524Z,100.00
2023-03-13T02:57:23.500Z,100.00
2023-03-13T02:59:51.460Z,100.00
2023-03-13T03:02:19.910Z,100.00
2023-03-13T03:04:47.642Z,100.00
2023-03-13T03:07:16.034Z,100.00
2023-03-13T03:09:44.072Z,100.00
2023-03-13T03:12:17.966Z,100.00
2023-03-13T03:14:47.518Z,100.00
2023-03-13T03:17:15.968Z,100.00
2023-03-13T03:19:47.396Z,100.00
2023-03-13T03:22:15.270Z,100.00
2023-03-13T03:24:43.468Z,100.00
2023-03-13T03:27:13.059Z,100.00
2023-03-13T03:29:49.167Z,100.00
2023-03-13T03:32:19.544Z,100.00
2023-03-13T03:34:48.442Z,100.00
2023-03-13T03:37:16.385Z,100.00
2023-03-13T03:39:44.361Z,100.00
2023-03-13T03:42:13.188Z,100.00
2023-03-13T03:44:42.624Z,100.00
2023-03-13T03:47:12.743Z,100.00
2023-03-13T03:49:48.474Z,100.00
2023-03-13T03:52:18.193Z,100.00
2023-03-13T03:54:46.067Z,100.00
2023-03-13T03:57:16.435Z,100.00
2023-03-13T03:59:46.415Z,100.00
2023-03-13T04:02:15.479Z,100.00
2023-03-13T04:04:45.604Z,100.00
2023-03-13T04:07:19.950Z,100.00
2023-03-13T04:09:48.825Z,100.00
2023-03-13T04:12:25.336Z,100.00
2023-03-13T04:14:56.802Z,100.00
2023-03-13T04:17:26.958Z,100.00
2023-03-13T04:19:54.787Z,100.00
2023-03-13T04:22:25.982Z,100.00
2023-03-13T04:24:58.708Z,100.00
2023-03-13T04:27:26.460Z,100.00
2023-03-13T04:29:55.281Z,100.00
2023-03-13T04:32:40.622Z,100.00
2023-03-13T04:35:23.788Z,100.00
2023-03-13T04:38:24.093Z,100.00
2023-03-13T04:41:08.838Z,100.00
2023-03-13T04:44:12.528Z,100.00
2023-03-13T04:46:50.993Z,100.00
2023-03-13T04:49:48.119Z,100.00
2023-03-13T04:52:38.891Z,100.00
2023-03-13T04:55:26.488Z,100.00
2023-03-13T04:58:09.764Z,100.00
2023-03-13T05:01:01.649Z,100.00
2023-03-13T05:03:53.967Z,100.00
2023-03-13T05:06:46.088Z,100.00
2023-03-13T05:09:34.424Z,100.00
2023-03-13T05:12:34.446Z,100.00
2023-03-13T05:15:32.374Z,100.00
2023-03-13T05:18:23.112Z,100.00
2023-03-13T05:21:08.408Z,100.00
2023-03-13T05:24:03.794Z,100.00
2023-03-13T05:26:41.185Z,100.00
2023-03-13T05:29:27.778Z,100.00
2023-03-13T05:32:19.422Z,100.00
2023-03-13T05:35:06.013Z,100.00
2023-03-13T05:37:59.306Z,100.00
2023-03-13T05:40:36.140Z,100.00
2023-03-13T05:43:15.030Z,100.00
2023-03-13T05:46:02.965Z,100.00
2023-03-13T05:48:47.406Z,100.00
2023-03-13T05:51:45.985Z,100.00
2023-03-13T05:54:26.395Z,100.00
2023-03-13T05:57:09.200Z,100.00
2023-03-13T05:59:44.140Z,100.00
2023-03-13T06:02:41.816Z,100.00
2023-03-13T06:05:13.487Z,100.00
2023-03-13T06:07:41.953Z,100.00
2023-03-13T06:10:11.559Z,100.00
2023-03-13T06:12:41.173Z,100.00
2023-03-13T06:15:12.758Z,100.00
2023-03-13T06:17:54.785Z,100.00
2023-03-13T06:20:23.399Z,100.00
2023-03-13T06:26:13.010Z,100.00
2023-03-13T06:28:43.459Z,100.00
2023-03-13T06:31:13.096Z,100.00
2023-03-13T06:33:40.676Z,100.00
2023-03-13T06:36:10.386Z,100.00
2023-03-13T06:38:39.410Z,100.00
2023-03-13T06:41:07.981Z,100.00
2023-03-13T06:43:35.543Z,100.00
2023-03-13T06:46:06.365Z,100.00
2023-03-13T06:48:34.033Z,100.00
2023-03-13T06:51:01.677Z,100.00
2023-03-13T06:53:29.215Z,100.00
2023-03-13T06:55:57.386Z,100.00
2023-03-13T06:58:31.961Z,100.00
2023-03-13T07:01:00.881Z,100.00
2023-03-13T07:03:30.426Z,100.00
2023-03-13T07:06:00.221Z,100.00
2023-03-13T07:08:28.820Z,100.00
2023-03-13T07:11:00.824Z,100.00
2023-03-13T07:13:29.649Z,100.00
2023-03-13T07:16:00.391Z,100.00
2023-03-13T07:18:28.125Z,100.00
2023-03-13T07:20:59.015Z,100.00
2023-03-13T07:23:28.722Z,100.00
2023-03-13T07:25:57.568Z,100.00
2023-03-13T07:28:25.897Z,100.00
2023-03-13T07:30:57.411Z,100.00
2023-03-13T07:33:25.070Z,100.00
2023-03-13T07:35:53.536Z,100.00
2023-03-13T07:38:22.627Z,100.00
2023-03-13T07:40:51.100Z,100.00
2023-03-13T07:43:19.486Z,100.00
2023-03-13T07:45:53.793Z,100.00
2023-03-13T07:48:22.542Z,100.00
2023-03-13T07:50:50.503Z,100.00
2023-03-13T07:53:21.204Z,100.00
2023-03-13T07:55:58.009Z,100.00
2023-03-13T07:58:27.332Z,100.00
2023-03-13T08:00:55.590Z,100.00
2023-03-13T08:03:26.404Z,100.00
2023-03-13T08:06:02.197Z,100.00
2023-03-13T08:08:31.501Z,100.00
2023-03-13T08:11:06.591Z,100.00
2023-03-13T08:13:35.533Z,100.00
2023-03-13T08:16:07.948Z,100.00
2023-03-13T08:18:36.974Z,100.00
2023-03-13T08:21:06.234Z,100.00
2023-03-13T08:23:34.540Z,100.00
2023-03-13T08:26:09.011Z,100.00
2023-03-13T08:28:37.514Z,100.00
2023-03-13T08:31:10.538Z,100.00
2023-03-13T08:33:38.598Z,100.00
2023-03-13T08:36:13.514Z,100.00
2023-03-13T08:38:45.871Z,100.00
2023-03-13T08:41:16.905Z,100.00
2023-03-13T08:43:45.516Z,100.00
2023-03-13T08:46:13.401Z,100.00
2023-03-13T08:48:42.297Z,100.00
2023-03-13T08:51:13.426Z,100.00
2023-03-13T08:53:43.557Z,100.00
2023-03-13T08:56:12.856Z,100.00
2023-03-13T08:58:42.504Z,100.00
2023-03-13T09:01:12.806Z,100.00
2023-03-13T09:03:41.450Z,100.00
2023-03-13T09:06:09.553Z,100.00
2023-03-13T09:08:39.465Z,100.00
2023-03-13T09:14:04.399Z,100.00
2023-03-13T09:16:33.374Z,100.00
2023-03-13T09:19:01.594Z,100.00
2023-03-13T09:21:31.489Z,100.00
2023-03-13T09:23:59.508Z,100.00
2023-03-13T09:26:28.996Z,100.00
2023-03-13T09:28:57.235Z,100.00
2023-03-13T09:31:28.615Z,100.00
2023-03-13T09:33:56.695Z,100.00
2023-03-13T09:36:26.485Z,100.00
2023-03-13T09:38:57.250Z,100.00
2023-03-13T09:41:29.436Z,100.00
2023-03-13T09:44:04.624Z,100.00
2023-03-13T09:46:39.099Z,100.00
2023-03-13T09:49:16.661Z,100.00
2023-03-13T09:51:52.443Z,100.00
2023-03-13T09:54:26.095Z,100.00
2023-03-13T09:56:58.585Z,100.00
2023-03-13T09:59:40.017Z,100.00
2023-03-13T10:02:22.594Z,100.00
2023-03-13T10:04:54.604Z,100.00
2023-03-13T10:07:23.034Z,100.00
2023-03-13T10:09:51.852Z,100.00
2023-03-13T10:12:24.397Z,100.00
2023-03-13T10:15:04.519Z,100.00
2023-03-13T10:17:37.169Z,100.00
2023-03-13T10:20:18.465Z,100.00
2023-03-13T10:22:50.999Z,100.00
2023-03-13T10:25:27.464Z,100.00
2023-03-13T10:27:56.426Z,100.00
2023-03-13T10:30:26.125Z,99.00
2023-03-13T10:33:01.500Z,99.86
2023-03-13T10:35:36.531Z,98.71
2023-03-13T10:38:06.709Z,98.66
2023-03-13T10:40:35.411Z,99.17
2023-03-13T10:43:07.125Z,98.66
2023-03-13T10:45:37.578Z,97.83
2023-03-13T10:48:16.050Z,98.53
2023-03-13T10:50:45.527Z,95.49
2023-03-13T10:53:27.229Z,96.25
2023-03-13T10:55:56.505Z,94.94
2023-03-13T10:58:31.804Z,95.80
2023-03-13T11:01:15.148Z,94.86
2023-03-13T11:03:46.459Z,93.00
2023-03-13T11:06:26.925Z,91.93
2023-03-13T11:09:02.856Z,91.50
2023-03-13T11:11:31.038Z,92.72
2023-03-13T11:14:10.494Z,93.54
2023-03-13T11:16:43.787Z,92.02
2023-03-13T11:19:44.820Z,92.37
2023-03-13T11:22:26.226Z,90.49
2023-03-13T11:25:03.176Z,88.82
2023-03-13T11:27:37.488Z,87.93
2023-03-13T11:30:17.884Z,86.74
2023-03-13T11:32:53.641Z,87.00
2023-03-13T11:35:37.573Z,84.39
2023-03-13T11:38:14.056Z,86.99
2023-03-13T11:40:50.575Z,88.55
2023-03-13T11:43:40.888Z,87.50
2023-03-13T11:46:22.798Z,86.37
2023-03-13T11:49:23.513Z,86.01
2023-03-13T11:52:23.265Z,87.00
2023-03-13T11:55:13.539Z,87.84
2023-03-13T11:57:53.970Z,85.84
2023-03-13T12:00:30.486Z,84.76
2023-03-13T12:03:06.518Z,84.11
2023-03-13T12:05:42.294Z,86.84
2023-03-13T12:08:18.900Z,86.40
2023-03-13T12:13:45.505Z,82.73
2023-03-13T12:16:19.578Z,85.92
2023-03-13T12:18:50.509Z,84.61
2023-03-13T12:21:22.303Z,81.26
2023-03-13T12:23:56.538Z,80.38
2023-03-13T12:26:35.632Z,82.15
2023-03-13T12:29:12.658Z,79.75
2023-03-13T12:31:44.747Z,78.54
2023-03-13T12:34:17.644Z,77.55
2023-03-13T12:36:49.523Z,75.43
2023-03-13T12:39:28.455Z,78.00
2023-03-13T12:42:11.192Z,75.17
2023-03-13T12:44:41.017Z,74.56
2023-03-13T12:47:18.800Z,75.18
2023-03-13T12:50:27.442Z,75.18
2023-03-13T12:53:48.945Z,75.98
2023-03-13T12:56:32.552Z,73.21
2023-03-13T12:59:08.014Z,73.43
2023-03-13T13:01:41.672Z,72.05
2023-03-13T13:04:13.847Z,72.27
2023-03-13T13:07:07.197Z,69.07
2023-03-13T13:09:38.438Z,68.91
2023-03-13T13:12:21.074Z,70.70
2023-03-13T13:15:06.515Z,68.59
2023-03-13T13:17:53.771Z,70.71
2023-03-13T13:20:31.371Z,70.48
2023-03-13T13:23:21.997Z,70.34
2023-03-13T13:25:50.350Z,69.08
2023-03-13T13:28:35.269Z,67.56
2023-03-13T13:31:03.612Z,67.37
2023-03-13T13:33:42.012Z,65.84
2023-03-13T13:36:30.907Z,67.03
2023-03-13T13:39:00.587Z,64.57
2023-03-13T13:41:39.541Z,65.97
2023-03-13T13:44:30.384Z,64.19
2023-03-13T13:47:02.844Z,66.43
2023-03-13T13:49:55.363Z,67.12
2023-03-13T13:52:41.554Z,68.47
2023-03-13T13:55:32.755Z,68.48
2023-03-13T13:58:04.081Z,69.78
2023-03-13T14:00:42.169Z,70.96
2023-03-13T14:03:20.353Z,70.71
2023-03-13T14:05:50.666Z,72.60
2023-03-13T14:08:25.184Z,72.31
2023-03-13T14:11:04.522Z,72.92
2023-03-13T14:13:32.447Z,72.67
2023-03-13T14:16:24.563Z,73.05
2023-03-13T14:18:53.490Z,69.80
2023-03-13T14:21:23.645Z,71.08
2023-03-13T14:23:52.453Z,70.76
2023-03-13T14:26:23.468Z,69.73
2023-03-13T14:28:54.349Z,70.70
2023-03-13T14:31:26.109Z,71.19
2023-03-13T14:33:54.525Z,68.18
2023-03-13T14:36:22.469Z,69.04
2023-03-13T14:38:57.440Z,69.35
2023-03-13T14:41:29.870Z,68.21
2023-03-13T14:44:04.463Z,68.66
2023-03-13T14:46:36.762Z,68.68
2023-03-13T14:49:16.411Z,70.20
2023-03-13T14:51:45.425Z,70.74
2023-03-13T14:54:32.610Z,71.10
2023-03-13T14:57:24.034Z,71.08
2023-03-13T14:59:53.670Z,71.50
2023-03-13T15:02:25.423Z,70.88
2023-03-13T15:04:59.294Z,71.20
2023-03-13T15:07:29.235Z,71.23
2023-03-13T15:09:57.569Z,71.39
2023-03-13T15:12:25.406Z,71.65
2023-03-13T15:14:54.048Z,72.79
2023-03-13T15:17:25.453Z,71.21
2023-03-13T15:19:54.912Z,72.33
2023-03-13T15:22:30.608Z,72.83
2023-03-13T15:25:07.361Z,71.33
2023-03-13T15:27:36.244Z,72.41
2023-03-13T15:30:04.083Z,71.96
2023-03-13T15:32:35.679Z,70.19
2023-03-13T15:35:08.524Z,70.28
2023-03-13T15:37:36.903Z,71.55
2023-03-13T15:40:08.002Z,71.58
2023-03-13T15:42:36.918Z,70.98
2023-03-13T15:45:07.039Z,71.69
2023-03-13T15:47:37.452Z,72.22
2023-03-13T15:50:08.050Z,73.40
2023-03-13T15:52:36.687Z,72.93
2023-03-13T15:55:07.097Z,73.88
2023-03-13T15:57:43.457Z,73.19
2023-03-13T16:00:17.540Z,73.64
2023-03-13T16:02:46.547Z,74.25
2023-03-13T16:05:15.542Z,74.29
2023-03-13T16:07:43.195Z,75.50
2023-03-13T16:10:17.509Z,75.84
2023-03-13T16:12:45.120Z,76.12
2023-03-13T16:15:12.818Z,75.94
2023-03-13T16:17:40.454Z,76.53
2023-03-13T16:20:16.901Z,75.40
2023-03-13T16:22:45.797Z,74.24
2023-03-13T16:25:14.253Z,74.07
2023-03-13T16:27:42.407Z,73.16
2023-03-13T16:30:17.791Z,72.15
2023-03-13T16:32:46.184Z,74.11
2023-03-13T16:35:15.419Z,75.01
2023-03-13T16:37:45.385Z,75.59
2023-03-13T16:40:19.249Z,76.99
2023-03-13T16:42:47.468Z,77.60
2023-03-13T16:45:15.750Z,78.34
2023-03-13T16:47:45.701Z,79.42
2023-03-13T16:50:24.676Z,80.00
2023-03-13T16:52:55.475Z,79.14
2023-03-13T16:55:28.326Z,78.79
2023-03-13T16:57:56.309Z,78.29
2023-03-13T17:00:26.478Z,78.21
2023-03-13T17:02:57.913Z,77.96
2023-03-13T17:05:27.400Z,75.49
2023-03-13T17:07:55.448Z,74.34
2023-03-13T17:10:25.384Z,73.97
2023-03-13T17:12:57.555Z,74.54
2023-03-13T17:15:26.450Z,74.77
2023-03-13T17:17:55.898Z,75.44
2023-03-13T17:20:25.454Z,75.27
2023-03-13T17:22:56.117Z,76.02
2023-03-13T17:25:24.274Z,74.85
2023-03-13T17:27:51.923Z,75.75
2023-03-13T17:30:22.558Z,76.23
2023-03-13T17:32:51.610Z,77.04
2023-03-13T17:35:20.853Z,77.45
2023-03-13T17:37:52.210Z,77.66
2023-03-13T17:40:23.378Z,77.38
2023-03-13T17:42:51.733Z,77.95
2023-03-13T17:45:20.357Z,77.39
2023-03-13T17:47:50.190Z,78.13
2023-03-13T17:50:20.637Z,78.73
2023-03-13T17:52:48.330Z,79.40
2023-03-13T17:55:17.254Z,79.95
2023-03-13T17:57:47.780Z,79.87
2023-03-13T18:00:22.467Z,80.37
2023-03-13T18:02:50.733Z,80.56
2023-03-13T18:05:18.779Z,80.54
2023-03-13T18:07:46.695Z,81.12
2023-03-13T18:10:18.395Z,80.77
2023-03-13T18:12:47.795Z,80.36
2023-03-13T18:15:15.806Z,81.25
2023-03-13T18:17:43.459Z,81.45
2023-03-13T18:20:16.158Z,82.28
2023-03-13T18:22:43.875Z,82.25
2023-03-13T18:25:12.501Z,82.49
2023-03-13T18:27:41.443Z,82.77
2023-03-13T18:30:17.376Z,82.62
2023-03-13T18:32:45.270Z,83.07
2023-03-13T18:35:14.491Z,81.94
2023-03-13T18:37:43.630Z,82.48
2023-03-13T18:40:18.027Z,82.65
2023-03-13T18:42:46.057Z,81.85
2023-03-13T18:45:21.150Z,81.98
2023-03-13T18:47:49.617Z,81.98
2023-03-13T18:50:23.460Z,81.89
2023-03-13T18:52:51.134Z,82.56
2023-03-13T18:55:18.803Z,82.16
2023-03-13T18:57:47.883Z,81.69
2023-03-13T19:00:19.837Z,82.07
2023-03-13T19:02:47.907Z,81.39
2023-03-13T19:05:15.547Z,82.04
2023-03-13T19:07:43.513Z,81.95
2023-03-13T19:10:20.339Z,82.21
2023-03-13T19:12:48.105Z,82.08
2023-03-13T19:15:16.469Z,82.07
2023-03-13T19:17:46.206Z,81.86
2023-03-13T19:20:16.486Z,82.64
2023-03-13T19:22:44.193Z,82.34
2023-03-13T19:25:12.447Z,82.49
2023-03-13T19:27:40.639Z,82.63
2023-03-13T19:30:16.909Z,83.10
2023-03-13T19:32:45.936Z,83.55
2023-03-13T19:35:13.653Z,83.41
2023-03-13T19:37:41.297Z,83.91
2023-03-13T19:40:18.388Z,84.09
2023-03-13T19:42:46.100Z,84.39
2023-03-13T19:45:14.146Z,84.69
2023-03-13T19:47:41.770Z,85.32
2023-03-13T19:50:18.246Z,85.46
2023-03-13T19:52:46.377Z,85.65
2023-03-13T19:55:14.473Z,86.19
2023-03-13T19:57:42.116Z,86.46
2023-03-13T20:00:17.485Z,86.83
2023-03-13T20:02:46.809Z,87.22
2023-03-13T20:05:16.037Z,86.92
2023-03-13T20:07:43.713Z,87.71
2023-03-13T20:10:12.316Z,87.84
2023-03-13T20:12:40.181Z,87.78
2023-03-13T20:15:09.470Z,87.68
2023-03-13T20:17:37.036Z,87.89
2023-03-13T20:20:08.186Z,88.24
2023-03-13T20:22:37.277Z,88.46
2023-03-13T20:25:05.394Z,88.19
2023-03-13T20:27:34.486Z,88.72
2023-03-13T20:30:02.094Z,88.83
2023-03-13T20:32:29.870Z,88.83
2023-03-13T20:34:57.484Z,89.04
2023-03-13T20:37:26.071Z,89.49
2023-03-13T20:39:55.488Z,89.46
2023-03-13T20:42:23.214Z,89.54
2023-03-13T20:44:50.909Z,89.60
2023-03-13T20:47:19.427Z,90.20
2023-03-13T20:49:47.035Z,90.19
2023-03-13T20:52:15.105Z,90.83
2023-03-13T20:54:42.767Z,90.78
2023-03-13T20:57:11.686Z,90.98
2023-03-13T20:59:41.055Z,91.00
2023-03-13T21:02:09.756Z,91.32
2023-03-13T21:04:38.081Z,91.31
2023-03-13T21:07:05.727Z,91.20
2023-03-13T21:09:34.492Z,91.40
2023-03-13T21:12:02.127Z,91.60
2023-03-13T21:14:33.290Z,91.24
2023-03-13T21:17:02.395Z,92.07
2023-03-13T21:19:30.221Z,92.49
2023-03-13T21:21:57.797Z,92.34
2023-03-13T21:24:25.639Z,92.46
2023-03-13T21:26:55.150Z,93.14
2023-03-13T21:29:22.825Z,92.99
2023-03-13T21:31:51.862Z,93.64
2023-03-13T21:34:20.575Z,94.13
2023-03-13T21:36:48.140Z,94.12
2023-03-13T21:39:15.734Z,94.30
2023-03-13T21:41:43.470Z,94.83
2023-03-13T21:44:11.186Z,94.46
2023-03-13T21:46:38.858Z,94.66
2023-03-13T21:49:07.776Z,95.23
2023-03-13T21:51:35.403Z,95.52
2023-03-13T21:54:03.589Z,95.20
2023-03-13T21:56:31.241Z,95.48
2023-03-13T21:58:59.034Z,95.38
2023-03-13T22:01:28.483Z,95.38
2023-03-13T22:03:56.084Z,95.71
2023-03-13T22:06:25.472Z,96.02
2023-03-13T22:08:54.229Z,96.25
2023-03-13T22:11:22.567Z,96.56
2023-03-13T22:13:50.249Z,96.45
2023-03-13T22:16:17.880Z,95.93
2023-03-13T22:18:45.441Z,96.23
2023-03-13T22:21:13.094Z,96.09
2023-03-13T22:23:42.015Z,96.13
2023-03-13T22:26:11.885Z,96.33
2023-03-13T22:28:39.810Z,96.22
2023-03-13T22:31:08.774Z,96.16
2023-03-13T22:33:36.606Z,95.91
2023-03-13T22:36:05.700Z,96.04
2023-03-13T22:38:38.588Z,96.56
2023-03-13T22:41:10.136Z,96.56
2023-03-13T22:43:37.746Z,96.52
2023-03-13T22:46:07.061Z,97.07
2023-03-13T22:48:35.106Z,96.96
2023-03-13T22:51:06.611Z,96.79
2023-03-13T22:53:36.966Z,97.39
2023-03-13T22:56:05.645Z,97.12
2023-03-13T22:58:35.472Z,97.08
2023-03-13T23:01:07.129Z,96.54
2023-03-13T23:03:34.912Z,96.04
2023-03-13T23:06:06.182Z,95.42
2023-03-13T23:08:33.881Z,95.34
2023-03-13T23:11:02.237Z,93.99
2023-03-13T23:13:30.502Z,93.93
2023-03-13T23:15:59.653Z,94.06
2023-03-13T23:18:28.693Z,93.24
2023-03-13T23:20:56.311Z,93.76
2023-03-13T23:23:24.102Z,93.29
2023-03-13T23:25:51.730Z,93.57
2023-03-13T23:28:19.330Z,93.08
2023-03-13T23:30:47.028Z,93.57
2023-03-13T23:33:16.011Z,93.50
2023-03-13T23:35:43.829Z,93.83
2023-03-13T23:38:12.425Z,92.99
2023-03-13T23:40:40.508Z,92.20
2023-03-13T23:43:08.206Z,92.51
2023-03-13T23:45:36.740Z,92.86
2023-03-13T23:48:04.444Z,92.30
2023-03-13T23:50:33.399Z,92.83
2023-03-13T23:53:00.989Z,92.45
2023-03-13T23:55:28.616Z,92.27
2023-03-13T23:57:56.490Z,92.55
